createdAt,value
2023-04-10T00:02:08.787Z,27.30
2023-04-10T00:04:35.886Z,28.53
2023-04-10T00:07:03.394Z,30.53
2023-04-10T00:09:30.695Z,30.80
2023-04-10T00:11:57.592Z,29.40
2023-04-10T00:14:24.790Z,33.57
2023-04-10T00:16:51.800Z,32.63
2023-04-10T00:19:18.792Z,31.57
2023-04-10T00:21:45.821Z,35.70
2023-04-10T00:24:12.611Z,36.60
2023-04-10T00:26:39.577Z,33.30
2023-04-10T00:29:06.850Z,34.40
2023-04-10T00:31:33.719Z,33.87
2023-04-10T00:34:00.675Z,33.20
2023-04-10T00:36:28.212Z,36.57
2023-04-10T00:38:55.201Z,36.23
2023-04-10T00:41:24.065Z,35.63
2023-04-10T00:43:55.447Z,34.40
2023-04-10T00:46:23.098Z,34.13
2023-04-10T00:48:50.867Z,35.13
2023-04-10T00:51:19.552Z,37.60
2023-04-10T00:53:47.960Z,35.40
2023-04-10T00:56:15.183Z,34.20
2023-04-10T00:58:42.206Z,33.60
2023-04-10T01:01:09.103Z,35.93
2023-04-10T01:03:36.677Z,38.33
2023-04-10T01:06:08.829Z,38.13
2023-04-10T01:08:41.958Z,41.13
2023-04-10T01:11:24.810Z,38.33
2023-04-10T01:13:55.628Z,37.97
2023-04-10T01:16:26.997Z,38.57
2023-04-10T01:18:57.547Z,32.00
2023-04-10T01:21:25.151Z,33.93
2023-04-10T01:24:10.922Z,33.47
2023-04-10T01:26:56.981Z,37.13
2023-04-10T01:29:28.040Z,31.90
2023-04-10T01:32:08.432Z,31.33
2023-04-10T01:34:45.685Z,32.73
2023-04-10T01:37:22.682Z,30.93
2023-04-10T01:39:51.329Z,31.13
2023-04-10T01:42:19.894Z,31.43
2023-04-10T01:44:47.899Z,31.07
2023-04-10T01:47:16.689Z,33.57
2023-04-10T01:49:45.128Z,33.83
2023-04-10T01:52:12.643Z,33.40
2023-04-10T01:54:41.234Z,34.17
2023-04-10T01:57:08.651Z,33.50
2023-04-10T01:59:49.702Z,32.43
2023-04-10T02:02:16.811Z,32.53
2023-04-10T02:04:46.719Z,33.60
2023-04-10T02:07:26.887Z,36.53
2023-04-10T02:10:09.349Z,35.93
2023-04-10T02:12:39.254Z,35.90
2023-04-10T02:15:08.826Z,32.90
2023-04-10T02:17:37.302Z,31.83
2023-04-10T02:20:05.070Z,33.90
2023-04-10T02:22:32.279Z,36.30
2023-04-10T02:24:59.829Z,32.70
2023-04-10T02:27:30.940Z,36.70
2023-04-10T02:29:59.204Z,33.07
2023-04-10T02:32:27.586Z,36.17
2023-04-10T02:34:54.794Z,37.10
2023-04-10T02:37:21.774Z,37.70
2023-04-10T02:39:49.540Z,35.80
2023-04-10T02:42:17.015Z,39.37
2023-04-10T02:44:44.920Z,36.47
2023-04-10T02:47:12.716Z,35.73
2023-04-10T02:49:44.569Z,35.70
2023-04-10T02:52:15.088Z,39.13
2023-04-10T02:54:42.124Z,34.30
2023-04-10T02:57:09.136Z,36.83
2023-04-10T02:59:36.575Z,35.80
2023-04-10T03:02:05.818Z,36.50
2023-04-10T03:04:36.176Z,34.27
2023-04-10T03:07:03.470Z,33.70
2023-04-10T03:09:30.512Z,37.23
2023-04-10T03:11:58.094Z,32.57
2023-04-10T03:14:25.068Z,34.50
2023-04-10T03:16:52.194Z,34.03
2023-04-10T03:19:19.123Z,34.07
2023-04-10T03:21:46.657Z,35.03
2023-04-10T03:24:13.598Z,38.00
2023-04-10T03:26:43.494Z,34.70
2023-04-10T03:29:10.667Z,34.07
2023-04-10T03:31:37.874Z,33.57
2023-04-10T03:34:04.983Z,33.07
2023-04-10T03:36:32.471Z,37.77
2023-04-10T03:38:59.543Z,33.77
2023-04-10T03:41:26.723Z,32.67
2023-04-10T03:43:54.264Z,32.27
2023-04-10T03:46:22.910Z,31.53
2023-04-10T03:48:53.046Z,31.17
2023-04-10T03:51:21.585Z,31.37
2023-04-10T03:53:49.544Z,31.73
2023-04-10T03:56:16.723Z,31.30
2023-04-10T03:58:44.900Z,31.50
2023-04-10T04:01:13.124Z,31.40
2023-04-10T04:04:00.681Z,29.90
2023-04-10T04:06:48.853Z,29.87
2023-04-10T04:09:36.197Z,29.43
2023-04-10T04:12:36.185Z,29.53
2023-04-10T04:15:09.159Z,29.83
2023-04-10T04:17:38.891Z,29.80
2023-04-10T04:20:09.192Z,28.40
2023-04-10T04:23:05.210Z,29.57
2023-04-10T04:25:56.437Z,29.40
2023-04-10T04:28:35.175Z,29.83
2023-04-10T04:31:13.952Z,30.63
2023-04-10T04:34:19.088Z,30.17
2023-04-10T04:37:14.129Z,28.27
2023-04-10T04:40:01.573Z,35.73
2023-04-10T04:42:37.599Z,30.53
2023-04-10T04:45:42.576Z,35.00
2023-04-10T04:48:38.153Z,37.77
2023-04-10T04:51:23.294Z,34.83
2023-04-10T04:53:56.993Z,45.63
2023-04-10T04:56:46.453Z,36.63
2023-04-10T04:59:42.490Z,31.90
2023-04-10T05:02:35.863Z,32.30
2023-04-10T05:05:09.208Z,37.73
2023-04-10T05:07:51.590Z,42.90
2023-04-10T05:10:31.165Z,34.70
2023-04-10T05:13:12.238Z,34.77
2023-04-10T05:16:05.432Z,37.73
2023-04-10T05:18:53.015Z,38.17
2023-04-10T05:21:38.855Z,37.30
2023-04-10T05:24:22.020Z,45.23
2023-04-10T05:27:07.570Z,40.47
2023-04-10T05:30:00.603Z,35.23
2023-04-10T05:32:36.666Z,38.33
2023-04-10T05:35:41.810Z,36.63
2023-04-10T05:38:31.326Z,36.03
2023-04-10T05:41:21.064Z,34.03
2023-04-10T05:44:16.892Z,34.60
2023-04-10T05:46:58.635Z,37.50
2023-04-10T05:49:39.075Z,34.97
2023-04-10T05:52:35.029Z,32.90
2023-04-10T05:55:10.902Z,32.30
2023-04-10T05:57:56.260Z,29.10
2023-04-10T06:00:23.392Z,28.87
2023-04-10T06:03:08.772Z,29.37
2023-04-10T06:05:46.582Z,29.57
2023-04-10T06:08:13.423Z,28.33
2023-04-10T06:10:41.365Z,28.40
2023-04-10T06:13:11.344Z,28.93
2023-04-10T06:15:38.767Z,28.63
2023-04-10T06:18:05.967Z,28.30
2023-04-10T06:20:32.883Z,29.70
2023-04-10T06:22:59.900Z,29.03
2023-04-10T06:25:26.786Z,30.13
2023-04-10T06:27:53.871Z,32.10
2023-04-10T06:30:20.993Z,32.37
2023-04-10T06:32:48.037Z,31.27
2023-04-10T06:35:14.941Z,30.40
2023-04-10T06:37:42.692Z,30.13
2023-04-10T06:40:11.040Z,32.53
2023-04-10T06:42:37.992Z,33.23
2023-04-10T06:45:13.620Z,30.83
2023-04-10T06:47:40.586Z,31.03
2023-04-10T06:50:07.639Z,32.10
2023-04-10T06:52:34.420Z,29.50
2023-04-10T06:55:01.241Z,32.20
2023-04-10T06:57:28.951Z,30.67
2023-04-10T06:59:55.806Z,29.97
2023-04-10T07:02:51.994Z,30.60
2023-04-10T07:05:21.166Z,31.63
2023-04-10T07:07:47.991Z,31.30
2023-04-10T07:10:15.607Z,29.67
2023-04-10T07:12:42.571Z,30.50
2023-04-10T07:15:09.714Z,30.33
2023-04-10T07:17:36.624Z,29.60
2023-04-10T07:20:03.791Z,32.63
2023-04-10T07:22:32.270Z,36.43
2023-04-10T07:24:59.356Z,32.77
2023-04-10T07:27:26.630Z,33.60
2023-04-10T07:29:54.965Z,28.23
2023-04-10T07:32:22.491Z,29.03
2023-04-10T07:34:49.598Z,29.43
2023-04-10T07:37:18.069Z,31.07
2023-04-10T07:39:45.312Z,28.00
2023-04-10T07:42:12.186Z,32.50
2023-04-10T07:44:39.347Z,28.93
2023-04-10T07:47:06.227Z,30.10
2023-04-10T07:49:33.131Z,28.47
2023-04-10T07:52:00.158Z,28.57
2023-04-10T07:54:27.004Z,30.87
2023-04-10T07:56:53.905Z,29.30
2023-04-10T07:59:21.126Z,30.50
2023-04-10T08:01:48.195Z,30.20
2023-04-10T08:04:15.335Z,31.57
2023-04-10T08:06:42.469Z,32.20
2023-04-10T08:09:09.477Z,33.00
2023-04-10T08:11:38.264Z,29.70
2023-04-10T08:14:06.288Z,32.50
2023-04-10T08:16:34.203Z,42.03
2023-04-10T08:19:01.696Z,33.07
2023-04-10T08:21:29.787Z,32.77
2023-04-10T08:23:57.588Z,33.93
2023-04-10T08:26:25.251Z,35.03
2023-04-10T08:28:53.051Z,32.40
2023-04-10T08:31:20.951Z,33.97
2023-04-10T08:33:48.613Z,34.47
2023-04-10T08:36:20.091Z,34.23
2023-04-10T08:38:47.631Z,31.70
2023-04-10T08:41:14.962Z,35.27
2023-04-10T08:43:43.577Z,34.67
2023-04-10T08:46:11.264Z,35.43
2023-04-10T08:48:48.868Z,33.23
2023-04-10T08:51:20.337Z,34.90
2023-04-10T08:53:51.014Z,32.63
2023-04-10T08:56:18.766Z,34.73
2023-04-10T08:58:46.052Z,33.77
2023-04-10T09:01:13.109Z,34.67
2023-04-10T09:03:40.163Z,34.00
2023-04-10T09:06:07.330Z,34.10
2023-04-10T09:08:34.245Z,33.13
2023-04-10T09:11:01.356Z,34.23
2023-04-10T09:13:39.116Z,32.93
2023-04-10T09:16:06.655Z,34.23
2023-04-10T09:18:52.001Z,31.90
2023-04-10T09:21:20.000Z,32.53
2023-04-10T09:23:47.732Z,34.07
2023-04-10T09:26:24.732Z,31.57
2023-04-10T09:29:01.128Z,33.43
2023-04-10T09:31:29.705Z,34.70
2023-04-10T09:34:09.718Z,34.07
2023-04-10T09:36:41.440Z,31.70
2023-04-10T09:39:08.854Z,32.83
2023-04-10T09:41:57.194Z,33.07
2023-04-10T09:44:34.597Z,32.27
2023-04-10T09:47:16.532Z,32.00
2023-04-10T09:49:48.558Z,32.70
2023-04-10T09:52:20.003Z,32.33
2023-04-10T09:54:47.109Z,31.67
2023-04-10T09:57:16.248Z,29.97
2023-04-10T09:59:45.003Z,30.60
2023-04-10T10:02:13.583Z,38.13
2023-04-10T10:04:41.862Z,26.67
2023-04-10T10:07:08.798Z,28.43
2023-04-10T10:09:36.865Z,28.33
2023-04-10T10:12:04.358Z,29.70
2023-04-10T10:14:32.349Z,29.87
2023-04-10T10:17:02.017Z,27.30
2023-04-10T10:19:33.856Z,25.87
2023-04-10T10:22:04.120Z,27.10
2023-04-10T10:24:31.901Z,25.50
2023-04-10T10:26:59.748Z,24.97
2023-04-10T10:29:26.929Z,23.53
2023-04-10T10:31:54.282Z,24.90
2023-04-10T10:34:22.060Z,23.13
2023-04-10T10:36:49.040Z,24.43
2023-04-10T10:39:25.952Z,23.77
2023-04-10T10:41:58.934Z,25.07
2023-04-10T10:44:44.499Z,24.13
2023-04-10T10:47:16.131Z,25.33
2023-04-10T10:49:55.506Z,26.43
2023-04-10T10:52:46.458Z,26.47
2023-04-10T10:55:22.381Z,26.97
2023-04-10T10:57:50.090Z,26.40
2023-04-10T11:00:17.017Z,27.23
2023-04-10T11:02:44.264Z,24.87
2023-04-10T11:05:11.484Z,26.47
2023-04-10T11:07:59.540Z,25.73
2023-04-10T11:10:45.193Z,25.67
2023-04-10T11:13:17.438Z,27.43
2023-04-10T11:15:45.058Z,30.67
2023-04-10T11:18:12.330Z,39.70
2023-04-10T11:20:59.887Z,30.27
2023-04-10T11:23:26.820Z,35.90
2023-04-10T11:25:54.819Z,29.93
2023-04-10T11:28:30.943Z,29.90
2023-04-10T11:31:14.737Z,28.57
2023-04-10T11:33:41.675Z,29.73
2023-04-10T11:36:08.512Z,29.93
2023-04-10T11:38:35.540Z,30.43
2023-04-10T11:41:04.577Z,26.83
2023-04-10T11:43:32.512Z,26.87
2023-04-10T11:46:07.582Z,29.10
2023-04-10T11:48:34.859Z,30.53
2023-04-10T11:51:11.927Z,32.50
2023-04-10T11:53:39.552Z,28.53
2023-04-10T11:56:07.827Z,29.77
2023-04-10T11:58:34.638Z,29.77
2023-04-10T12:01:04.935Z,29.43
2023-04-10T12:03:32.924Z,27.37
2023-04-10T12:06:00.499Z,27.63
2023-04-10T12:08:31.350Z,26.77
2023-04-10T12:10:58.597Z,25.33
2023-04-10T12:13:26.318Z,27.23
2023-04-10T12:15:53.596Z,27.67
2023-04-10T12:18:21.740Z,28.73
2023-04-10T12:20:48.887Z,33.07
2023-04-10T12:23:16.192Z,31.73
2023-04-10T12:25:43.163Z,35.80
2023-04-10T12:28:09.972Z,31.47
2023-04-10T12:30:36.886Z,32.00
2023-04-10T12:33:06.122Z,30.30
2023-04-10T12:35:39.618Z,32.43
2023-04-10T12:38:06.923Z,30.10
2023-04-10T12:40:33.810Z,34.07
2023-04-10T12:43:00.832Z,32.77
2023-04-10T12:45:44.011Z,30.50
2023-04-10T12:48:11.177Z,29.90
2023-04-10T12:50:50.861Z,30.87
2023-04-10T12:53:17.790Z,30.57
2023-04-10T12:56:00.901Z,30.90
2023-04-10T12:58:28.702Z,31.87
2023-04-10T13:00:58.947Z,30.63
2023-04-10T13:03:26.163Z,26.30
2023-04-10T13:05:53.651Z,26.23
2023-04-10T13:08:21.317Z,24.90
2023-04-10T13:10:49.321Z,25.30
2023-04-10T13:13:16.751Z,25.67
2023-04-10T13:15:43.963Z,24.43
2023-04-10T13:18:11.345Z,22.50
2023-04-10T13:20:39.062Z,24.37
2023-04-10T13:23:06.332Z,20.57
2023-04-10T13:25:34.035Z,20.87
2023-04-10T13:28:01.930Z,21.87
2023-04-10T13:30:29.308Z,20.63
2023-04-10T13:32:56.209Z,19.73
2023-04-10T13:35:23.144Z,19.90
2023-04-10T13:37:53.275Z,18.77
2023-04-10T13:40:21.518Z,18.30
2023-04-10T13:42:48.633Z,18.73
2023-04-10T13:45:15.879Z,19.53
2023-04-10T13:47:43.624Z,20.23
2023-04-10T13:50:10.868Z,20.30
2023-04-10T13:52:37.757Z,20.30
2023-04-10T13:55:04.946Z,19.07
2023-04-10T13:57:31.785Z,19.50
2023-04-10T13:59:58.994Z,19.70
2023-04-10T14:02:26.079Z,19.13
2023-04-10T14:04:53.070Z,20.27
2023-04-10T14:07:20.402Z,18.13
2023-04-10T14:09:47.436Z,18.07
2023-04-10T14:12:16.778Z,17.63
2023-04-10T14:14:44.386Z,19.27
2023-04-10T14:17:11.280Z,19.60
2023-04-10T14:19:38.956Z,18.53
2023-04-10T14:22:06.029Z,18.03
2023-04-10T14:24:33.118Z,19.03
2023-04-10T14:27:01.532Z,17.10
2023-04-10T14:29:37.259Z,16.87
2023-04-10T14:32:06.237Z,16.47
2023-04-10T14:34:33.077Z,16.63
2023-04-10T14:37:00.031Z,17.07
2023-04-10T14:39:27.189Z,15.00
2023-04-10T14:41:54.067Z,15.27
2023-04-10T14:44:21.124Z,14.83
2023-04-10T14:46:48.005Z,15.20
2023-04-10T14:49:15.363Z,15.53
2023-04-10T14:51:46.374Z,16.57
2023-04-10T14:54:13.352Z,14.73
2023-04-10T14:56:40.305Z,16.13
2023-04-10T14:59:07.273Z,15.57
2023-04-10T15:01:35.705Z,14.53
2023-04-10T15:04:02.961Z,13.80
2023-04-10T15:06:30.297Z,15.47
2023-04-10T15:08:57.185Z,15.10
2023-04-10T15:11:24.151Z,13.63
2023-04-10T15:13:51.147Z,14.90
2023-04-10T15:16:18.878Z,15.70
2023-04-10T15:18:49.645Z,15.73
2023-04-10T15:21:16.850Z,15.23
2023-04-10T15:23:43.986Z,14.73
2023-04-10T15:26:11.824Z,14.97
2023-04-10T15:28:38.632Z,14.27
2023-04-10T15:31:05.864Z,14.60
2023-04-10T15:33:32.818Z,14.03
2023-04-10T15:36:00.183Z,17.13
2023-04-10T15:38:28.958Z,14.87
2023-04-10T15:40:56.153Z,13.97
2023-04-10T15:43:23.066Z,13.83
2023-04-10T15:45:49.965Z,14.60
2023-04-10T15:48:16.787Z,15.67
2023-04-10T15:50:43.660Z,12.90
2023-04-10T15:53:10.536Z,14.97
2023-04-10T15:55:41.053Z,13.83
2023-04-10T15:58:07.981Z,13.07
2023-04-10T16:00:34.814Z,13.50
2023-04-10T16:03:01.898Z,13.70
2023-04-10T16:05:28.791Z,13.87
2023-04-10T16:07:55.791Z,14.90
2023-04-10T16:10:22.699Z,13.80
2023-04-10T16:12:49.524Z,13.33
2023-04-10T16:15:16.917Z,15.03
2023-04-10T16:17:43.824Z,20.93
2023-04-10T16:20:10.970Z,16.00
2023-04-10T16:22:37.924Z,21.87
2023-04-10T16:27:31.623Z,19.83
2023-04-10T16:29:58.470Z,24.73
2023-04-10T16:32:25.416Z,15.40
2023-04-10T16:34:52.429Z,13.77
2023-04-10T16:37:19.296Z,13.17
2023-04-10T16:39:46.189Z,14.10
2023-04-10T16:42:13.086Z,13.50
2023-04-10T16:44:40.551Z,14.20
2023-04-10T16:47:08.921Z,14.50
2023-04-10T16:49:36.024Z,14.27
2023-04-10T16:52:02.886Z,13.53
2023-04-10T16:54:29.750Z,14.70
2023-04-10T16:56:57.222Z,16.83
2023-04-10T16:59:24.276Z,19.07
2023-04-10T17:01:51.689Z,16.40
2023-04-10T17:04:20.249Z,17.90
2023-04-10T17:06:47.236Z,17.70
2023-04-10T17:09:14.063Z,18.23
2023-04-10T17:11:41.228Z,14.63
2023-04-10T17:14:09.198Z,15.43
2023-04-10T17:16:36.470Z,16.83
2023-04-10T17:19:03.361Z,16.07
2023-04-10T17:21:31.586Z,20.07
2023-04-10T17:23:58.720Z,19.33
2023-04-10T17:26:25.723Z,16.33
2023-04-10T17:28:52.886Z,16.53
2023-04-10T17:31:19.998Z,15.83
2023-04-10T17:33:46.872Z,15.23
2023-04-10T17:36:13.933Z,15.53
2023-04-10T17:38:42.060Z,15.13
2023-04-10T17:41:09.837Z,13.90
2023-04-10T17:43:36.720Z,13.10
2023-04-10T17:46:03.597Z,11.07
2023-04-10T17:48:30.978Z,11.07
2023-04-10T17:50:57.985Z,11.90
2023-04-10T17:53:24.871Z,11.97
2023-04-10T17:55:52.058Z,12.70
2023-04-10T17:58:19.019Z,11.87
2023-04-10T18:00:46.295Z,11.60
2023-04-10T18:03:13.209Z,11.83
2023-04-10T18:05:40.466Z,11.30
2023-04-10T18:08:08.797Z,11.07
2023-04-10T18:10:35.732Z,10.60
2023-04-10T18:13:02.527Z,11.33
2023-04-10T18:15:29.614Z,9.80
2023-04-10T18:17:56.488Z,10.17
2023-04-10T18:20:23.449Z,10.43
2023-04-10T18:22:50.277Z,10.40
2023-04-10T18:25:17.647Z,10.80
2023-04-10T18:27:51.567Z,10.73
2023-04-10T18:30:22.361Z,13.33
2023-04-10T18:32:52.203Z,12.67
2023-04-10T18:35:19.276Z,12.47
2023-04-10T18:37:46.194Z,11.87
2023-04-10T18:40:16.450Z,10.40
2023-04-10T18:42:43.873Z,9.67
2023-04-10T18:45:13.155Z,9.27
2023-04-10T18:47:40.089Z,9.43
2023-04-10T18:50:09.850Z,9.60
2023-04-10T18:52:36.689Z,9.57
2023-04-10T18:55:03.999Z,8.77
2023-04-10T18:57:30.817Z,7.97
2023-04-10T18:59:58.051Z,7.47
2023-04-10T19:02:25.106Z,8.07
2023-04-10T19:04:53.391Z,8.00
2023-04-10T19:07:20.313Z,7.90
2023-04-10T19:09:47.961Z,10.80
2023-04-10T19:12:14.883Z,9.20
2023-04-10T19:14:41.734Z,9.90
2023-04-10T19:17:08.665Z,11.20
2023-04-10T19:19:35.574Z,12.80
2023-04-10T19:22:02.395Z,10.83
2023-04-10T19:24:30.875Z,14.70
2023-04-10T19:26:57.711Z,14.50
2023-04-10T19:29:24.605Z,18.17
2023-04-10T19:31:51.500Z,16.23
2023-04-10T19:34:18.413Z,20.40
2023-04-10T19:36:45.311Z,27.40
2023-04-10T19:39:12.564Z,28.63
2023-04-10T19:41:42.394Z,26.83
2023-04-10T19:44:09.432Z,26.03
2023-04-10T19:46:36.266Z,12.47
2023-04-10T19:49:03.641Z,9.50
2023-04-10T19:51:30.459Z,8.10
2023-04-10T19:53:58.580Z,10.40
2023-04-10T19:56:27.166Z,11.00
2023-04-10T19:58:54.210Z,11.63
2023-04-10T20:01:21.213Z,11.37
2023-04-10T20:03:48.279Z,12.23
2023-04-10T20:06:16.254Z,10.97
2023-04-10T20:08:43.182Z,11.13
2023-04-10T20:11:10.006Z,13.27
2023-04-10T20:13:37.178Z,12.30
2023-04-10T20:16:04.623Z,12.07
2023-04-10T20:18:32.389Z,12.50
2023-04-10T20:20:59.971Z,12.30
2023-04-10T20:23:27.124Z,13.10
2023-04-10T20:25:53.991Z,13.90
2023-04-10T20:28:21.046Z,14.33
2023-04-10T20:30:48.082Z,13.80
2023-04-10T20:33:15.166Z,12.50
2023-04-10T20:35:42.788Z,12.70
2023-04-10T20:38:09.981Z,12.70
2023-04-10T20:40:37.179Z,16.60
2023-04-10T20:43:10.996Z,13.67
2023-04-10T20:45:41.807Z,16.00
2023-04-10T20:48:09.534Z,15.60
2023-04-10T20:50:37.523Z,16.27
2023-04-10T20:53:04.641Z,16.97
2023-04-10T20:55:31.464Z,15.83
2023-04-10T20:57:58.880Z,14.43
2023-04-10T21:00:25.812Z,12.33
2023-04-10T21:02:53.285Z,12.73
2023-04-10T21:05:20.694Z,12.73
2023-04-10T21:07:47.761Z,11.80
2023-04-10T21:10:14.918Z,11.70
2023-04-10T21:12:42.215Z,12.07
2023-04-10T21:15:10.027Z,12.37
2023-04-10T21:17:36.922Z,12.80
2023-04-10T21:20:04.758Z,12.40
2023-04-10T21:22:31.886Z,12.53
2023-04-10T21:24:59.090Z,11.77
2023-04-10T21:27:26.005Z,12.90
2023-04-10T21:29:52.866Z,13.97
2023-04-10T21:32:20.182Z,14.00
2023-04-10T21:34:47.248Z,13.77
2023-04-10T21:37:14.583Z,10.30
2023-04-10T21:39:41.954Z,9.43
2023-04-10T21:42:08.925Z,9.93
2023-04-10T21:44:35.790Z,8.67
2023-04-10T21:47:02.782Z,9.33
2023-04-10T21:49:30.216Z,8.67
2023-04-10T21:51:59.265Z,8.60
2023-04-10T21:54:26.571Z,7.93
2023-04-10T21:56:53.473Z,8.07
2023-04-10T21:59:20.781Z,9.10
2023-04-10T22:01:47.926Z,8.73
2023-04-10T22:04:15.204Z,7.77
2023-04-10T22:06:42.085Z,8.17
2023-04-10T22:09:09.565Z,8.13
2023-04-10T22:11:37.328Z,8.07
2023-04-10T22:14:15.795Z,7.97
2023-04-10T22:16:43.301Z,11.03
2023-04-10T22:19:10.197Z,8.63
2023-04-10T22:21:37.422Z,8.33
2023-04-10T22:24:04.379Z,7.33
2023-04-10T22:26:32.961Z,7.30
2023-04-10T22:28:59.883Z,8.10
2023-04-10T22:31:26.875Z,8.00
2023-04-10T22:33:53.672Z,7.50
2023-04-10T22:36:21.470Z,7.57
2023-04-10T22:38:49.100Z,7.50
2023-04-10T22:41:15.901Z,7.03
2023-04-10T22:43:42.702Z,6.23
2023-04-10T22:46:09.702Z,4.63
2023-04-10T22:48:36.540Z,4.60
2023-04-10T22:51:03.478Z,4.40
2023-04-10T22:53:30.578Z,5.63
2023-04-10T22:55:57.434Z,6.90
2023-04-10T22:58:24.354Z,6.70
2023-04-10T23:00:51.365Z,7.23
2023-04-10T23:03:18.321Z,5.87
2023-04-10T23:05:45.213Z,6.03
2023-04-10T23:08:12.100Z,5.50
2023-04-10T23:10:38.923Z,6.23
2023-04-10T23:13:05.969Z,8.50
2023-04-10T23:15:32.874Z,12.13
2023-04-10T23:17:59.787Z,25.33
2023-04-10T23:20:26.712Z,17.67
2023-04-10T23:22:55.073Z,14.47
2023-04-10T23:25:22.067Z,14.53
2023-04-10T23:27:49.082Z,10.83
2023-04-10T23:30:16.615Z,11.07
2023-04-10T23:32:43.481Z,10.07
2023-04-10T23:35:10.274Z,8.37
2023-04-10T23:37:37.500Z,7.80
2023-04-10T23:40:04.471Z,7.80
2023-04-10T23:42:31.476Z,8.57
2023-04-10T23:44:58.315Z,9.40
2023-04-10T23:47:25.154Z,10.73
2023-04-10T23:49:52.063Z,9.97
2023-04-10T23:52:18.896Z,9.67
2023-04-10T23:54:45.816Z,9.70
2023-04-10T23:57:12.807Z,10.03
2023-04-10T23:59:39.661Z,9.23
